Decoded Metar for LFBD (BORDEAUX in FRANCE) (IATA:BOD) | Meteo·Mobile Aviation Weather
aviador You're here:

LFBD Decoded Metar

BORDEAUX in FRANCE
Report Time2019-09-21 08:30:00
UTC Time2019-09-21 08:47:41
Flight Rules vfr VFR
Wind130° at 12 kt
W.Decomp.*RWY 11: 11.2 kt HW 4.3 kt RCW
RWY 05: 1.9 kt HW 11.9 kt RCW
Visibility9999 m
Phenomena:N/A
Clouds:Few 009 Hf
Scattered 120 Hf
Broken 160 Hf
Expected CloudBase > 2,400 ft AGL from Temp-Dew spread
Ceiling16,000 ft
Temp23°C (ISA +8)
Dew Point17°C (69% RH)
AAT21.1°C
QNH1011 hPa
Density Alt1,503 ft
Elevation200 ft
Report Wrong Elevation
Raw Report
METAR LFBD 210830Z AUTO 13012KT 9999 FEW009 SCT120 BKN160 23/17 Q1011
NOSIG=

Extra information for LFBD:More info

Metar Taf Metar & Taf Last 4 Metars F.Rules Stats Wind Profile Meteogram Temp Stats Airport Information Weather charts Add Link Nearby VenuesMetar ALERT Operation Metar Decoded Social comments